createdAt,value
2022-12-09T00:02:04.624Z,11.37
2022-12-09T00:04:33.321Z,11.07
2022-12-09T00:07:02.044Z,11.03
2022-12-09T00:09:30.773Z,10.87
2022-12-09T00:11:59.333Z,12.47
2022-12-09T00:14:29.170Z,9.97
2022-12-09T00:16:57.720Z,10.17
2022-12-09T00:19:26.252Z,10.60
2022-12-09T00:21:54.709Z,9.77
2022-12-09T00:24:23.121Z,11.73
2022-12-09T00:26:52.279Z,11.27
2022-12-09T00:29:21.084Z,11.10
2022-12-09T00:31:51.106Z,11.73
2022-12-09T00:34:19.878Z,12.03
2022-12-09T00:36:48.478Z,12.03
2022-12-09T00:39:17.277Z,11.07
2022-12-09T00:41:45.819Z,11.43
2022-12-09T00:44:14.358Z,9.80
2022-12-09T00:46:42.993Z,10.73
2022-12-09T00:49:14.949Z,9.53
2022-12-09T00:51:43.548Z,8.73
2022-12-09T00:54:12.221Z,9.33
2022-12-09T00:56:40.948Z,8.90
2022-12-09T00:59:09.618Z,11.33
2022-12-09T01:01:38.600Z,11.03
2022-12-09T01:04:09.230Z,10.30
2022-12-09T01:06:39.498Z,11.53
2022-12-09T01:09:08.088Z,10.90
2022-12-09T01:11:36.744Z,9.83
2022-12-09T01:14:05.276Z,9.63
2022-12-09T01:16:34.994Z,11.03
2022-12-09T01:19:06.820Z,10.50
2022-12-09T01:21:36.411Z,11.23
2022-12-09T01:24:09.568Z,10.00
2022-12-09T01:26:38.617Z,9.77
2022-12-09T01:29:07.335Z,9.30
2022-12-09T01:31:35.935Z,11.37
2022-12-09T01:34:04.742Z,9.33
2022-12-09T01:36:33.318Z,9.37
2022-12-09T01:39:01.874Z,9.53
2022-12-09T01:41:31.678Z,9.47
2022-12-09T01:44:15.533Z,9.10
2022-12-09T01:46:44.468Z,10.23
2022-12-09T01:49:16.557Z,9.83
2022-12-09T01:51:46.348Z,9.87
2022-12-09T01:54:15.581Z,9.83
2022-12-09T01:56:45.637Z,9.13
2022-12-09T01:59:16.603Z,9.27
2022-12-09T02:01:47.816Z,8.67
2022-12-09T02:04:16.460Z,9.43
2022-12-09T02:06:45.086Z,9.70
2022-12-09T02:09:13.852Z,10.57
2022-12-09T02:11:52.500Z,8.90
2022-12-09T02:14:25.209Z,8.30
2022-12-09T02:17:00.681Z,8.97
2022-12-09T02:19:43.122Z,8.90
2022-12-09T02:22:13.801Z,8.93
2022-12-09T02:24:47.398Z,8.43
2022-12-09T02:27:21.808Z,8.83
2022-12-09T02:30:12.361Z,8.93
2022-12-09T02:32:57.736Z,8.80
2022-12-09T02:35:33.244Z,8.80
2022-12-09T02:38:06.183Z,8.67
2022-12-09T02:40:39.273Z,9.07
2022-12-09T02:43:09.170Z,9.50
2022-12-09T02:45:38.790Z,9.27
2022-12-09T02:48:07.952Z,9.40
2022-12-09T02:50:39.101Z,8.17
2022-12-09T02:53:11.054Z,9.20
2022-12-09T02:55:41.532Z,8.70
2022-12-09T02:58:10.061Z,8.67
2022-12-09T03:00:39.444Z,8.70
2022-12-09T03:03:09.861Z,9.30
2022-12-09T03:05:46.701Z,8.60
2022-12-09T03:08:19.208Z,9.43
2022-12-09T03:10:55.044Z,9.77
2022-12-09T03:13:34.566Z,9.07
2022-12-09T03:16:09.243Z,9.23
2022-12-09T03:18:39.615Z,8.37
2022-12-09T03:21:09.744Z,9.50
2022-12-09T03:23:38.506Z,9.10
2022-12-09T03:26:07.874Z,8.30
2022-12-09T03:28:41.541Z,8.43
2022-12-09T03:31:14.813Z,9.17
2022-12-09T03:33:44.477Z,9.23
2022-12-09T03:36:15.849Z,10.20
2022-12-09T03:38:45.113Z,11.20
2022-12-09T03:41:19.742Z,11.30
2022-12-09T03:43:52.342Z,9.97
2022-12-09T03:46:21.409Z,10.17
2022-12-09T03:48:50.056Z,9.57
2022-12-09T03:51:23.182Z,9.07
2022-12-09T03:53:55.156Z,9.03
2022-12-09T03:56:25.349Z,9.60
2022-12-09T03:58:56.618Z,10.20
2022-12-09T04:01:26.094Z,8.87
2022-12-09T04:03:57.208Z,8.10
2022-12-09T04:06:27.867Z,8.40
2022-12-09T04:09:01.980Z,8.83
2022-12-09T04:11:31.611Z,9.67
2022-12-09T04:14:00.481Z,8.47
2022-12-09T04:16:29.405Z,8.57
2022-12-09T04:18:58.037Z,9.53
2022-12-09T04:21:27.996Z,8.77
2022-12-09T04:23:56.540Z,8.27
2022-12-09T04:26:25.264Z,9.23
2022-12-09T04:28:53.870Z,10.10
2022-12-09T04:31:22.924Z,10.20
2022-12-09T04:33:51.554Z,9.93
2022-12-09T04:36:21.222Z,9.03
2022-12-09T04:38:51.140Z,9.07
2022-12-09T04:41:19.643Z,9.27
2022-12-09T04:43:49.039Z,10.27
2022-12-09T04:46:18.743Z,10.37
2022-12-09T04:48:47.708Z,10.57
2022-12-09T04:51:17.679Z,11.73
2022-12-09T04:53:46.385Z,10.73
2022-12-09T04:56:19.079Z,10.60
2022-12-09T04:58:48.507Z,10.37
2022-12-09T05:01:21.669Z,11.47
2022-12-09T05:03:54.819Z,10.23
2022-12-09T05:06:23.870Z,10.67
2022-12-09T05:08:52.873Z,9.47
2022-12-09T05:11:24.398Z,9.73
2022-12-09T05:13:54.668Z,10.20
2022-12-09T05:16:24.092Z,10.47
2022-12-09T05:18:53.173Z,10.30
2022-12-09T05:21:22.471Z,10.53
2022-12-09T05:23:51.228Z,11.60
2022-12-09T05:26:22.394Z,10.17
2022-12-09T05:28:52.340Z,10.40
2022-12-09T05:31:23.593Z,9.97
2022-12-09T05:33:53.236Z,10.47
2022-12-09T05:36:25.408Z,10.33
2022-12-09T05:38:54.709Z,9.67
2022-12-09T05:41:25.179Z,9.60
2022-12-09T05:43:54.167Z,10.43
2022-12-09T05:46:23.452Z,9.80
2022-12-09T05:48:52.443Z,9.97
2022-12-09T05:51:26.400Z,9.97
2022-12-09T05:53:55.777Z,10.63
2022-12-09T05:56:26.701Z,9.63
2022-12-09T05:58:56.405Z,10.83
2022-12-09T06:01:25.771Z,10.57
2022-12-09T06:03:55.725Z,10.73
2022-12-09T06:06:28.094Z,10.30
2022-12-09T06:09:00.681Z,9.97
2022-12-09T06:11:32.358Z,10.67
2022-12-09T06:14:01.053Z,10.43
2022-12-09T06:16:29.896Z,10.23
2022-12-09T06:18:58.671Z,10.73
2022-12-09T06:21:27.384Z,9.83
2022-12-09T06:23:56.199Z,9.87
2022-12-09T06:26:26.146Z,10.73
2022-12-09T06:28:57.188Z,10.40
2022-12-09T06:31:26.700Z,9.23
2022-12-09T06:33:57.925Z,9.70
2022-12-09T06:36:29.124Z,9.87
2022-12-09T06:39:03.114Z,9.77
2022-12-09T06:41:36.582Z,11.30
2022-12-09T06:44:06.822Z,10.95
2022-12-09T06:46:35.388Z,10.23
2022-12-09T06:49:04.788Z,12.27
2022-12-09T06:51:33.903Z,11.70
2022-12-09T06:54:02.539Z,11.00
2022-12-09T06:56:32.684Z,15.37
2022-12-09T06:59:01.322Z,13.40
2022-12-09T07:01:31.580Z,13.30
2022-12-09T07:04:01.165Z,14.90
2022-12-09T07:06:37.332Z,14.13
2022-12-09T07:09:08.109Z,22.53
2022-12-09T07:11:40.350Z,19.83
2022-12-09T07:14:09.391Z,14.97
2022-12-09T07:16:42.383Z,14.60
2022-12-09T07:19:18.058Z,13.63
2022-12-09T07:21:50.192Z,12.73
2022-12-09T07:24:20.157Z,12.37
2022-12-09T07:26:52.071Z,11.47
2022-12-09T07:29:23.049Z,11.80
2022-12-09T07:31:53.694Z,13.20
2022-12-09T07:34:26.581Z,12.50
2022-12-09T07:36:55.418Z,24.30
2022-12-09T07:39:24.159Z,26.67
2022-12-09T07:41:57.752Z,18.67
2022-12-09T07:44:28.312Z,16.13
2022-12-09T07:46:58.697Z,14.73
2022-12-09T07:49:27.615Z,14.50
2022-12-09T07:51:57.419Z,16.93
2022-12-09T07:54:26.463Z,15.43
2022-12-09T07:56:58.450Z,15.43
2022-12-09T07:59:27.260Z,14.10
2022-12-09T08:01:59.798Z,13.57
2022-12-09T08:04:32.921Z,20.07
2022-12-09T08:07:03.769Z,22.50
2022-12-09T08:09:35.879Z,18.17
2022-12-09T08:12:07.748Z,14.23
2022-12-09T08:14:36.645Z,15.77
2022-12-09T08:17:05.286Z,15.80
2022-12-09T08:19:35.650Z,26.93
2022-12-09T08:22:05.040Z,18.63
2022-12-09T08:24:34.039Z,16.13
2022-12-09T08:27:02.751Z,15.40
2022-12-09T08:29:31.470Z,19.53
2022-12-09T08:32:00.128Z,45.47
2022-12-09T08:34:29.291Z,37.13
2022-12-09T08:37:02.226Z,14.27
2022-12-09T08:39:31.386Z,12.80
2022-12-09T08:42:00.208Z,11.83
2022-12-09T08:44:29.198Z,14.47
2022-12-09T08:46:57.971Z,11.07
2022-12-09T08:49:28.140Z,10.47
2022-12-09T08:51:57.508Z,14.30
2022-12-09T08:54:27.485Z,11.70
2022-12-09T08:56:57.793Z,10.83
2022-12-09T08:59:26.345Z,12.80
2022-12-09T09:01:55.534Z,14.50
2022-12-09T09:04:24.367Z,13.97
2022-12-09T09:06:52.996Z,11.33
2022-12-09T09:09:23.378Z,12.73
2022-12-09T09:11:54.033Z,11.33
2022-12-09T09:14:22.871Z,12.80
2022-12-09T09:16:51.883Z,12.50
2022-12-09T09:19:22.476Z,11.23
2022-12-09T09:21:51.730Z,12.20
2022-12-09T09:24:22.970Z,12.80
2022-12-09T09:26:53.999Z,11.73
2022-12-09T09:29:23.969Z,14.33
2022-12-09T09:31:55.207Z,14.57
2022-12-09T09:34:25.085Z,11.53
2022-12-09T09:36:54.167Z,14.23
2022-12-09T09:39:23.259Z,13.70
2022-12-09T09:41:55.314Z,16.40
2022-12-09T09:44:27.496Z,15.33
2022-12-09T09:46:57.555Z,16.27
2022-12-09T09:49:35.533Z,14.73
2022-12-09T09:52:08.668Z,14.77
2022-12-09T09:54:37.939Z,17.80
2022-12-09T09:57:14.143Z,17.20
2022-12-09T10:00:06.983Z,14.43
2022-12-09T10:02:59.705Z,14.20
2022-12-09T10:05:32.667Z,15.47
2022-12-09T10:08:14.490Z,15.63
2022-12-09T10:10:48.433Z,15.67
2022-12-09T10:13:28.329Z,20.93
2022-12-09T10:16:04.721Z,27.33
2022-12-09T10:18:36.983Z,23.73
2022-12-09T10:21:15.717Z,16.93
2022-12-09T10:23:44.993Z,13.97
2022-12-09T10:26:18.659Z,35.57
2022-12-09T10:28:54.351Z,24.13
2022-12-09T10:31:23.509Z,28.27
2022-12-09T10:33:52.313Z,20.73
2022-12-09T10:36:29.287Z,14.97
2022-12-09T10:39:01.638Z,15.27
2022-12-09T10:42:00.822Z,14.07
2022-12-09T10:44:31.326Z,14.77
2022-12-09T10:47:02.340Z,15.57
2022-12-09T10:49:31.276Z,15.67
2022-12-09T10:52:00.094Z,14.50
2022-12-09T10:54:34.295Z,17.27
2022-12-09T10:57:07.268Z,16.60
2022-12-09T10:59:38.087Z,15.20
2022-12-09T11:02:21.141Z,16.13
2022-12-09T11:04:50.481Z,13.60
2022-12-09T11:07:21.776Z,19.23
2022-12-09T11:09:52.353Z,19.93
2022-12-09T11:12:38.473Z,15.97
2022-12-09T11:15:27.914Z,13.40
2022-12-09T11:17:59.512Z,14.43
2022-12-09T11:20:31.671Z,16.80
2022-12-09T11:23:03.614Z,14.70
2022-12-09T11:25:36.083Z,13.90
2022-12-09T11:28:10.670Z,14.60
2022-12-09T11:30:57.556Z,17.83
2022-12-09T11:33:33.267Z,38.93
2022-12-09T11:36:09.404Z,22.67
2022-12-09T11:38:41.267Z,13.73
2022-12-09T11:41:41.448Z,14.87
2022-12-09T11:44:24.114Z,14.30
2022-12-09T11:47:02.288Z,14.17
2022-12-09T11:49:33.314Z,12.90
2022-12-09T11:52:05.368Z,13.43
2022-12-09T11:54:39.439Z,12.13
2022-12-09T11:57:12.701Z,13.43
2022-12-09T11:59:47.016Z,16.03
2022-12-09T12:02:26.264Z,13.83
2022-12-09T12:04:59.505Z,13.97
2022-12-09T12:07:33.961Z,14.33
2022-12-09T12:10:03.753Z,14.60
2022-12-09T12:12:37.913Z,14.20
2022-12-09T12:15:14.174Z,14.80
2022-12-09T12:17:47.564Z,14.43
2022-12-09T12:20:16.354Z,14.33
2022-12-09T12:23:07.112Z,14.93
2022-12-09T12:25:46.006Z,13.47
2022-12-09T12:28:23.637Z,13.83
2022-12-09T12:30:57.847Z,14.93
2022-12-09T12:36:37.944Z,14.83
2022-12-09T12:39:15.437Z,15.63
2022-12-09T12:41:50.105Z,13.10
2022-12-09T12:44:48.050Z,17.50
2022-12-09T12:47:24.306Z,16.27
2022-12-09T12:50:19.857Z,16.47
2022-12-09T12:52:56.721Z,17.27
2022-12-09T12:55:37.850Z,17.33
2022-12-09T12:58:11.623Z,17.33
2022-12-09T13:00:48.914Z,15.00
2022-12-09T13:03:23.379Z,18.87
2022-12-09T13:05:55.522Z,17.07
2022-12-09T13:08:29.391Z,24.00
2022-12-09T13:10:59.581Z,16.43
2022-12-09T13:13:30.876Z,15.60
2022-12-09T13:16:03.646Z,16.20
2022-12-09T13:18:35.934Z,17.00
2022-12-09T13:21:07.922Z,15.60
2022-12-09T13:23:50.612Z,15.90
2022-12-09T13:26:26.344Z,17.27
2022-12-09T13:29:03.307Z,15.57
2022-12-09T13:31:35.654Z,16.77
2022-12-09T13:34:16.509Z,13.73
2022-12-09T13:36:48.025Z,19.10
2022-12-09T13:39:46.178Z,14.43
2022-12-09T13:42:53.383Z,15.53
2022-12-09T13:45:29.224Z,14.17
2022-12-09T13:47:58.374Z,13.93
2022-12-09T13:50:31.088Z,14.70
2022-12-09T13:53:03.160Z,17.50
2022-12-09T13:55:41.677Z,15.10
2022-12-09T13:58:40.568Z,13.87
2022-12-09T14:01:17.629Z,13.40
2022-12-09T14:03:58.636Z,13.17
2022-12-09T14:06:30.369Z,14.73
2022-12-09T14:09:02.934Z,13.67
2022-12-09T14:11:48.987Z,16.03
2022-12-09T14:14:56.183Z,28.80
2022-12-09T14:18:01.294Z,20.53
2022-12-09T14:20:32.867Z,15.30
2022-12-09T14:23:24.158Z,16.40
2022-12-09T14:26:05.686Z,15.30
2022-12-09T14:29:01.010Z,13.10
2022-12-09T14:31:56.855Z,14.63
2022-12-09T14:34:40.043Z,13.93
2022-12-09T14:37:38.153Z,14.03
2022-12-09T14:40:22.592Z,13.93
2022-12-09T14:42:56.760Z,13.57
2022-12-09T14:45:32.009Z,20.63
2022-12-09T14:48:00.989Z,19.27
2022-12-09T14:50:30.425Z,17.10
2022-12-09T14:53:01.065Z,15.77
2022-12-09T14:55:30.991Z,13.20
2022-12-09T14:58:02.624Z,15.20
2022-12-09T15:00:34.616Z,15.20
2022-12-09T15:05:58.057Z,23.77
2022-12-09T15:08:34.979Z,22.07
2022-12-09T15:11:07.129Z,20.20
2022-12-09T15:13:38.162Z,17.73
2022-12-09T15:16:09.810Z,20.63
2022-12-09T15:18:39.729Z,21.27
2022-12-09T15:21:08.468Z,16.13
2022-12-09T15:23:39.392Z,17.77
2022-12-09T15:26:10.821Z,15.60
2022-12-09T15:28:48.514Z,15.00
2022-12-09T15:31:19.018Z,20.50
2022-12-09T15:33:50.506Z,20.30
2022-12-09T15:36:21.953Z,15.27
2022-12-09T15:38:53.045Z,16.47
2022-12-09T15:41:39.520Z,14.10
2022-12-09T15:44:11.986Z,14.83
2022-12-09T15:46:43.463Z,14.80
2022-12-09T15:49:14.450Z,18.60
2022-12-09T15:51:43.974Z,16.27
2022-12-09T15:54:15.934Z,18.50
2022-12-09T15:56:46.761Z,19.90
2022-12-09T15:59:19.367Z,41.73
2022-12-09T16:01:50.044Z,30.67
2022-12-09T16:04:21.337Z,26.80
2022-12-09T16:06:50.493Z,20.97
2022-12-09T16:09:20.625Z,20.50
2022-12-09T16:11:54.161Z,19.80
2022-12-09T16:14:25.348Z,20.90
2022-12-09T16:16:58.162Z,18.63
2022-12-09T16:19:28.740Z,37.47
2022-12-09T16:21:59.300Z,35.47
2022-12-09T16:24:38.935Z,24.03
2022-12-09T16:27:19.797Z,19.97
2022-12-09T16:29:52.022Z,18.73
2022-12-09T16:32:24.464Z,23.53
2022-12-09T16:34:54.482Z,21.63
2022-12-09T16:37:30.679Z,20.83
2022-12-09T16:39:59.878Z,20.53
2022-12-09T16:42:30.150Z,24.73
2022-12-09T16:45:29.644Z,39.93
2022-12-09T16:47:59.346Z,25.87
2022-12-09T16:50:32.237Z,21.47
2022-12-09T16:53:01.241Z,18.47
2022-12-09T16:55:30.768Z,16.10
2022-12-09T16:58:00.707Z,24.90
2022-12-09T17:00:30.878Z,24.70
2022-12-09T17:03:09.691Z,23.87
2022-12-09T17:05:41.190Z,25.07
2022-12-09T17:08:13.151Z,23.93
2022-12-09T17:10:42.443Z,38.17
2022-12-09T17:13:14.009Z,34.83
2022-12-09T17:15:43.816Z,22.63
2022-12-09T17:18:12.621Z,19.27
2022-12-09T17:20:41.118Z,15.87
2022-12-09T17:23:09.842Z,18.03
2022-12-09T17:25:38.441Z,20.07
2022-12-09T17:28:07.577Z,21.50
2022-12-09T17:30:38.481Z,25.67
2022-12-09T17:33:08.281Z,23.37
2022-12-09T17:35:39.645Z,49.37
2022-12-09T17:38:10.973Z,27.87
2022-12-09T17:40:39.737Z,20.63
2022-12-09T17:43:08.187Z,18.07
2022-12-09T17:45:41.942Z,19.10
2022-12-09T17:48:12.334Z,16.87
2022-12-09T17:50:44.402Z,18.60
2022-12-09T17:53:12.845Z,16.93
2022-12-09T17:55:41.299Z,19.30
2022-12-09T17:58:09.727Z,19.23
2022-12-09T18:00:41.508Z,19.17
2022-12-09T18:03:17.826Z,20.77
2022-12-09T18:05:50.946Z,24.47
2022-12-09T18:08:19.470Z,27.47
2022-12-09T18:10:47.987Z,23.30
2022-12-09T18:13:16.557Z,20.97
2022-12-09T18:15:47.461Z,21.07
2022-12-09T18:18:20.924Z,21.00
2022-12-09T18:20:49.748Z,20.07
2022-12-09T18:23:18.325Z,21.40
2022-12-09T18:25:48.840Z,19.70
2022-12-09T18:28:20.412Z,19.17
2022-12-09T18:30:48.956Z,19.27
2022-12-09T18:33:17.674Z,19.20
2022-12-09T18:35:47.872Z,19.53
2022-12-09T18:38:16.794Z,19.57
2022-12-09T18:41:00.161Z,19.47
2022-12-09T18:43:29.136Z,20.60
2022-12-09T18:45:57.993Z,19.43
2022-12-09T18:48:26.515Z,21.93
2022-12-09T18:50:56.319Z,23.50
2022-12-09T18:53:24.997Z,20.77
2022-12-09T18:55:53.757Z,20.83
2022-12-09T18:58:36.803Z,21.57
2022-12-09T19:01:18.472Z,32.33
2022-12-09T19:03:47.572Z,29.07
2022-12-09T19:06:22.212Z,31.87
2022-12-09T19:08:53.728Z,29.43
2022-12-09T19:11:22.833Z,32.47
2022-12-09T19:13:51.481Z,27.57
2022-12-09T19:16:20.184Z,35.70
2022-12-09T19:18:49.334Z,33.80
2022-12-09T19:21:20.583Z,28.03
2022-12-09T19:23:49.451Z,28.83
2022-12-09T19:26:19.693Z,26.57
2022-12-09T19:28:49.549Z,29.60
2022-12-09T19:31:20.244Z,31.33
2022-12-09T19:33:48.702Z,33.17
2022-12-09T19:36:17.208Z,30.27
2022-12-09T19:38:47.177Z,29.53
2022-12-09T19:41:15.569Z,23.80
2022-12-09T19:43:44.025Z,24.13
2022-12-09T19:46:13.773Z,25.63
2022-12-09T19:48:44.331Z,27.30
2022-12-09T19:51:14.169Z,25.93
2022-12-09T19:53:43.389Z,28.10
2022-12-09T19:56:16.803Z,25.30
2022-12-09T19:58:45.798Z,33.77
2022-12-09T20:01:16.689Z,32.67
2022-12-09T20:03:46.857Z,34.00
2022-12-09T20:06:17.146Z,32.50
2022-12-09T20:08:46.482Z,29.53
2022-12-09T20:11:17.553Z,27.33
2022-12-09T20:13:46.665Z,27.67
2022-12-09T20:16:16.805Z,29.07
2022-12-09T20:18:46.761Z,27.87
2022-12-09T20:21:17.356Z,27.80
2022-12-09T20:23:46.822Z,28.33
2022-12-09T20:26:19.396Z,27.77
2022-12-09T20:28:49.485Z,30.50
2022-12-09T20:31:19.537Z,30.50
2022-12-09T20:33:48.703Z,29.53
2022-12-09T20:36:19.529Z,31.70
2022-12-09T20:38:49.688Z,26.93
2022-12-09T20:41:19.926Z,28.47
2022-12-09T20:43:49.502Z,28.83
2022-12-09T20:46:20.020Z,29.47
2022-12-09T20:48:49.274Z,26.87
2022-12-09T20:51:19.488Z,27.57
2022-12-09T20:53:49.317Z,24.97
2022-12-09T20:56:20.549Z,24.63
2022-12-09T20:58:51.058Z,29.93
2022-12-09T21:01:21.336Z,29.83
2022-12-09T21:03:50.257Z,27.77
2022-12-09T21:06:20.529Z,30.10
2022-12-09T21:08:49.170Z,28.97
2022-12-09T21:11:20.481Z,26.30
2022-12-09T21:13:50.388Z,21.60
2022-12-09T21:16:20.886Z,22.87
2022-12-09T21:18:50.299Z,22.07
2022-12-09T21:21:19.779Z,22.40
2022-12-09T21:23:49.965Z,21.73
2022-12-09T21:26:21.568Z,20.77
2022-12-09T21:28:50.350Z,18.53
2022-12-09T21:31:20.597Z,19.30
2022-12-09T21:33:50.366Z,21.87
2022-12-09T21:36:20.907Z,22.90
2022-12-09T21:38:49.380Z,25.40
2022-12-09T21:41:22.340Z,23.30
2022-12-09T21:43:52.829Z,19.50
2022-12-09T21:46:22.790Z,17.63
2022-12-09T21:48:54.248Z,19.83
2022-12-09T21:51:25.037Z,17.17
2022-12-09T21:53:54.946Z,16.73
2022-12-09T21:56:24.768Z,17.57
2022-12-09T21:58:57.214Z,17.17
2022-12-09T22:01:27.364Z,28.37
2022-12-09T22:03:56.618Z,18.97
2022-12-09T22:06:25.298Z,18.50
2022-12-09T22:08:53.930Z,17.50
2022-12-09T22:11:24.150Z,14.87
2022-12-09T22:13:54.362Z,11.98
2022-12-09T22:16:24.528Z,15.83
2022-12-09T22:18:54.883Z,13.53
2022-12-09T22:21:26.771Z,13.47
2022-12-09T22:23:56.940Z,14.10
2022-12-09T22:26:25.863Z,13.13
2022-12-09T22:28:56.237Z,13.70
2022-12-09T22:31:26.667Z,14.13
2022-12-09T22:34:00.048Z,13.37
2022-12-09T22:36:28.793Z,13.63
2022-12-09T22:38:57.232Z,13.77
2022-12-09T22:41:29.834Z,15.07
2022-12-09T22:43:59.843Z,14.33
2022-12-09T22:46:30.350Z,13.27
2022-12-09T22:49:02.021Z,14.57
2022-12-09T22:51:32.773Z,13.00
2022-12-09T22:54:02.902Z,14.07
2022-12-09T22:56:31.814Z,14.83
2022-12-09T22:59:01.958Z,15.90
2022-12-09T23:01:32.847Z,18.00
2022-12-09T23:04:01.796Z,16.83
2022-12-09T23:06:30.865Z,17.50
2022-12-09T23:08:59.561Z,17.90
2022-12-09T23:11:29.353Z,18.63
2022-12-09T23:14:01.315Z,17.57
2022-12-09T23:16:30.107Z,20.17
2022-12-09T23:18:59.836Z,17.20
2022-12-09T23:21:30.158Z,16.87
2022-12-09T23:24:00.452Z,15.43
2022-12-09T23:26:31.486Z,16.03
2022-12-09T23:29:02.584Z,18.93
2022-12-09T23:31:33.490Z,20.17
2022-12-09T23:34:03.358Z,18.63
2022-12-09T23:36:34.418Z,18.10
2022-12-09T23:39:04.296Z,18.67
2022-12-09T23:41:32.730Z,17.53
2022-12-09T23:44:02.677Z,18.40
2022-12-09T23:46:31.331Z,15.80
2022-12-09T23:48:59.838Z,18.53
2022-12-09T23:51:29.800Z,16.10
2022-12-09T23:53:59.991Z,16.67
2022-12-09T23:56:29.655Z,17.07
2022-12-09T23:58:59.376Z,16.90
